Time;durP1;ratioP1;P1;durP2;ratioP2;P2;SDS_P1;SDS_P2;PMS_P1;PMS_P2;Temp;Humidity;BMP_temperature;BMP_pressure;BME280_temperature;BME280_humidity;BME280_pressure;Samples;Min_cycle;Max_cycle;Signal;HPM_P1;HPM_P2
2022/05/07 00:02:39;;;;;;;20.73;13.30;;;15.90;59.40;;;;;;9182318;19;20018;-73
2022/05/07 00:05:50;;;;;;;23.33;13.60;;;15.80;59.50;;;;;;9178312;19;20038;-71
2022/05/07 00:08:56;;;;;;;24.65;13.07;;;15.80;59.60;;;;;;9180184;19;20014;-73
2022/05/07 00:12:15;;;;;;;18.90;12.45;;;15.70;59.70;;;;;;9180370;19;20018;-73
2022/05/07 00:15:20;;;;;;;24.95;13.07;;;15.70;59.90;;;;;;9182283;19;20017;-74
2022/05/07 00:18:27;;;;;;;20.20;13.57;;;15.60;59.80;;;;;;9181613;19;20472;-72
2022/05/07 00:21:32;;;;;;;22.05;13.13;;;15.50;59.80;;;;;;9180669;19;20022;-72
2022/05/07 00:24:37;;;;;;;22.23;13.70;;;15.50;59.90;;;;;;9178911;19;20103;-73
2022/05/07 00:27:45;;;;;;;21.05;14.00;;;15.50;60.10;;;;;;9179203;19;20018;-73
2022/05/07 00:30:50;;;;;;;23.90;15.02;;;15.40;60.20;;;;;;9182646;19;20044;-73
2022/05/07 00:33:55;;;;;;;25.10;14.20;;;15.40;60.30;;;;;;9181927;19;20011;-73
2022/05/07 00:37:07;;;;;;;27.35;15.02;;;15.30;60.40;;;;;;9180022;19;20029;-74
2022/05/07 00:40:12;;;;;;;21.17;14.63;;;15.30;60.50;;;;;;9178699;19;20037;-73
2022/05/07 00:43:21;;;;;;;25.17;14.75;;;15.20;60.60;;;;;;9175324;19;20014;-73
2022/05/07 00:46:28;;;;;;;24.98;14.32;;;15.20;60.80;;;;;;9180269;19;20007;-72
2022/05/07 00:49:34;;;;;;;28.42;14.65;;;15.20;60.80;;;;;;9180022;19;20467;-72
2022/05/07 00:52:37;;;;;;;22.42;14.27;;;15.10;60.80;;;;;;9179141;19;20101;-72
2022/05/07 00:55:46;;;;;;;23.92;13.75;;;15.00;60.90;;;;;;9179560;19;20375;-73
2022/05/07 00:58:55;;;;;;;23.27;14.07;;;15.00;61.10;;;;;;9180886;19;20106;-71
2022/05/07 01:02:00;;;;;;;23.33;14.65;;;15.00;61.20;;;;;;9177610;19;20488;-73
2022/05/07 01:05:10;;;;;;;31.95;14.95;;;14.90;61.10;;;;;;9178867;19;20006;-72
2022/05/07 01:08:15;;;;;;;24.77;14.25;;;14.90;61.30;;;;;;9180911;19;20034;-72
2022/05/07 01:11:23;;;;;;;26.80;15.73;;;14.90;61.40;;;;;;9179255;19;20014;-72
2022/05/07 01:14:35;;;;;;;20.73;14.50;;;14.90;61.40;;;;;;9179595;19;20036;-74
2022/05/07 01:17:41;;;;;;;25.33;15.50;;;14.80;61.50;;;;;;9179278;19;20089;-72
2022/05/07 01:20:53;;;;;;;26.02;15.85;;;14.80;61.60;;;;;;9178430;19;20022;-73
2022/05/07 01:24:01;;;;;;;26.60;15.40;;;14.80;61.70;;;;;;9176776;19;20018;-72
2022/05/07 01:27:13;;;;;;;26.25;15.18;;;14.70;61.80;;;;;;9179138;19;20010;-73
2022/05/07 01:30:26;;;;;;;25.65;15.77;;;14.70;61.80;;;;;;9178033;19;20011;-73
2022/05/07 01:33:33;;;;;;;27.33;15.85;;;14.70;62.00;;;;;;9177891;19;20014;-73
2022/05/07 01:36:43;;;;;;;27.77;15.32;;;14.70;62.00;;;;;;9178458;19;20015;-72
2022/05/07 01:39:57;;;;;;;28.65;15.50;;;14.60;62.00;;;;;;9178885;19;20015;-72
2022/05/07 01:43:07;;;;;;;23.40;16.42;;;14.60;62.20;;;;;;9174947;19;20007;-73
2022/05/07 01:49:34;;;;;;;24.02;15.18;;;14.60;62.40;;;;;;9177833;19;20011;-73
2022/05/07 01:52:43;;;;;;;39.17;16.05;;;14.50;62.30;;;;;;9181962;19;20100;-72
2022/05/07 01:55:53;;;;;;;22.23;15.13;;;14.50;62.40;;;;;;9188992;19;20010;-72
2022/05/07 01:59:04;;;;;;;23.65;15.68;;;14.50;62.60;;;;;;9186257;19;20531;-71
2022/05/07 02:02:10;;;;;;;28.52;15.88;;;14.50;62.50;;;;;;9187863;19;20025;-73
2022/05/07 02:05:15;;;;;;;29.77;16.17;;;14.40;63.30;;;;;;9183195;19;20394;-74
2022/05/07 02:08:20;;;;;;;25.38;15.48;;;14.40;62.70;;;;;;9186978;19;20934;-74
2022/05/07 02:11:29;;;;;;;27.60;17.25;;;14.40;63.00;;;;;;9186827;19;20011;-72
2022/05/07 02:14:35;;;;;;;29.05;16.90;;;14.30;63.00;;;;;;9186382;19;20018;-72
2022/05/07 02:17:41;;;;;;;27.67;16.80;;;14.30;63.00;;;;;;9186405;19;20017;-73
2022/05/07 02:20:53;;;;;;;30.95;16.63;;;14.30;63.00;;;;;;9182580;19;20514;-72
2022/05/07 02:23:58;;;;;;;26.13;15.88;;;14.30;63.10;;;;;;9184135;19;20037;-73
2022/05/07 02:27:07;;;;;;;21.65;15.90;;;14.30;63.20;;;;;;9185409;19;20011;-73
2022/05/07 02:30:19;;;;;;;22.92;14.63;;;14.20;63.40;;;;;;9185824;19;20053;-72
2022/05/07 02:33:27;;;;;;;22.60;15.25;;;14.20;63.40;;;;;;9184589;19;20011;-74
2022/05/07 02:36:33;;;;;;;22.10;14.57;;;14.20;64.10;;;;;;9184723;19;20022;-72
2022/05/07 02:39:38;;;;;;;26.48;16.05;;;14.10;63.40;;;;;;9184692;19;20574;-72
2022/05/07 02:42:44;;;;;;;22.58;15.02;;;14.10;63.50;;;;;;9180724;19;20022;-73
2022/05/07 02:45:54;;;;;;;25.65;15.30;;;14.10;63.60;;;;;;9182120;19;20490;-73
2022/05/07 02:49:00;;;;;;;26.20;16.35;;;14.00;63.50;;;;;;9184883;19;20018;-72
2022/05/07 02:52:06;;;;;;;28.48;17.65;;;14.00;63.70;;;;;;9183615;19;20573;-72
2022/05/07 02:55:13;;;;;;;36.80;17.75;;;14.00;63.70;;;;;;9184109;19;20015;-72
2022/05/07 02:58:25;;;;;;;29.45;17.58;;;13.90;63.80;;;;;;9183994;19;20010;-73
2022/05/07 03:01:31;;;;;;;27.08;17.38;;;13.90;64.00;;;;;;9187037;19;20048;-72
2022/05/07 03:04:37;;;;;;;27.27;17.77;;;13.90;64.00;;;;;;9183420;19;20011;-72
2022/05/07 03:07:45;;;;;;;26.25;16.17;;;13.90;64.10;;;;;;9184214;19;20078;-71
2022/05/07 03:10:57;;;;;;;25.73;16.17;;;13.90;64.10;;;;;;9185241;19;20014;-73
2022/05/07 03:14:06;;;;;;;22.42;15.70;;;13.90;64.30;;;;;;9183741;19;20014;-72
2022/05/07 03:17:14;;;;;;;28.75;16.77;;;13.90;64.40;;;;;;9181332;19;20018;-73
2022/05/07 03:20:20;;;;;;;24.48;16.23;;;13.80;64.30;;;;;;9183781;19;20490;-72
2022/05/07 03:23:28;;;;;;;29.55;16.35;;;13.90;64.40;;;;;;9183215;19;20462;-72
2022/05/07 03:26:42;;;;;;;23.27;14.95;;;13.80;64.40;;;;;;9180885;19;20026;-74
2022/05/07 03:29:51;;;;;;;23.63;15.43;;;13.80;64.50;;;;;;9183138;19;20502;-72
2022/05/07 03:32:58;;;;;;;19.33;13.32;;;13.80;64.60;;;;;;9185837;19;20811;-73
2022/05/07 03:36:11;;;;;;;19.90;13.32;;;13.80;64.60;;;;;;9182202;19;20050;-71
2022/05/07 03:39:16;;;;;;;19.05;12.80;;;13.80;64.90;;;;;;9182213;19;20010;-71
2022/05/07 03:45:55;;;;;;;22.70;14.05;;;13.80;64.90;;;;;;9180405;19;20526;-73
2022/05/07 03:49:00;;;;;;;19.48;13.77;;;13.80;64.90;;;;;;9181847;19;20748;-73
2022/05/07 03:55:41;;;;;;;22.75;15.02;;;13.70;65.00;;;;;;9182104;19;20015;-71
2022/05/07 03:58:53;;;;;;;21.65;14.88;;;13.70;65.00;;;;;;9181864;19;20017;-72
2022/05/07 04:02:17;;;;;;;28.67;16.63;;;13.70;64.90;;;;;;9182051;19;20015;-73
2022/05/07 04:05:30;;;;;;;25.45;16.25;;;13.70;65.00;;;;;;9180477;19;20014;-72
2022/05/07 04:08:48;;;;;;;25.65;14.93;;;13.60;64.90;;;;;;9181294;19;20018;-72
2022/05/07 04:11:54;;;;;;;23.38;15.48;;;13.70;65.00;;;;;;9180419;19;20022;-73
2022/05/07 04:15:01;;;;;;;23.35;14.32;;;13.60;65.00;;;;;;9179784;19;20020;-73
2022/05/07 04:18:17;;;;;;;24.27;14.85;;;13.60;65.20;;;;;;9180411;19;20093;-71
2022/05/07 04:21:27;;;;;;;22.45;15.50;;;13.60;65.30;;;;;;9181415;19;20376;-71
2022/05/07 04:24:45;;;;;;;26.67;16.80;;;13.60;65.30;;;;;;9181605;19;20019;-72
2022/05/07 04:27:51;;;;;;;28.58;16.30;;;13.60;65.40;;;;;;9180743;19;20010;-72
2022/05/07 04:31:02;;;;;;;26.48;15.35;;;13.60;65.40;;;;;;9180889;19;20044;-72
2022/05/07 04:34:15;;;;;;;28.77;15.75;;;13.60;65.50;;;;;;9181199;19;20074;-72
2022/05/07 04:37:22;;;;;;;25.02;15.45;;;13.60;65.60;;;;;;9180717;19;20490;-71
2022/05/07 04:40:41;;;;;;;22.55;15.73;;;13.60;65.60;;;;;;9180638;19;20049;-71
2022/05/07 04:43:51;;;;;;;25.95;15.32;;;13.60;66.20;;;;;;9176922;19;20022;-73
2022/05/07 04:46:59;;;;;;;28.77;16.27;;;13.60;65.70;;;;;;9178583;19;20015;-73
2022/05/07 04:50:08;;;;;;;29.13;15.95;;;13.60;65.70;;;;;;9180491;19;20590;-72
2022/05/07 04:53:21;;;;;;;28.85;16.98;;;13.60;65.90;;;;;;9179218;19;20010;-73
2022/05/07 04:56:32;;;;;;;39.30;18.85;;;13.60;65.90;;;;;;9177892;19;20022;-72
2022/05/07 04:59:41;;;;;;;36.80;17.85;;;13.60;66.00;;;;;;9162007;19;20026;-71
2022/05/07 05:02:53;;;;;;;28.88;17.45;;;13.60;66.00;;;;;;9177693;19;20085;-72
2022/05/07 05:06:04;;;;;;;32.33;18.98;;;13.60;66.20;;;;;;9174943;19;20021;-72
2022/05/07 05:09:35;;;;;;;31.88;19.20;;;13.60;66.20;;;;;;9173794;19;20010;-72
2022/05/07 05:12:53;;;;;;;27.30;18.67;;;13.60;66.10;;;;;;9174526;19;20018;-73
2022/05/07 05:16:09;;;;;;;29.17;19.38;;;13.60;66.20;;;;;;9173431;19;20039;-72
2022/05/07 05:19:27;;;;;;;32.60;18.63;;;13.70;66.30;;;;;;9174490;19;20021;-71
2022/05/07 05:22:36;;;;;;;28.60;18.33;;;13.70;66.40;;;;;;9173584;19;20015;-71
2022/05/07 05:25:45;;;;;;;30.60;18.58;;;13.70;66.50;;;;;;9174310;19;20364;-72
2022/05/07 05:29:07;;;;;;;31.92;19.48;;;13.70;66.50;;;;;;9184725;19;20097;-71
2022/05/07 05:32:17;;;;;;;26.33;18.38;;;13.70;66.50;;;;;;9187848;19;20018;-72
2022/05/07 05:35:25;;;;;;;30.17;18.60;;;13.80;66.60;;;;;;9187398;19;20014;-72
2022/05/07 05:38:40;;;;;;;29.50;18.48;;;13.80;66.70;;;;;;9187823;19;20019;-71
2022/05/07 05:41:51;;;;;;;30.35;19.05;;;13.80;66.80;;;;;;9183559;19;20371;-71
2022/05/07 05:44:56;;;;;;;26.38;18.90;;;13.90;66.80;;;;;;9187054;19;20097;-73
2022/05/07 05:48:06;;;;;;;27.65;18.70;;;13.90;66.90;;;;;;9183985;19;20049;-72
2022/05/07 05:51:13;;;;;;;35.13;20.67;;;13.90;67.00;;;;;;9185863;19;20018;-72
2022/05/07 05:54:24;;;;;;;34.17;19.83;;;14.00;67.00;;;;;;9186182;19;20048;-71
2022/05/07 05:57:34;;;;;;;32.17;19.02;;;14.00;67.20;;;;;;9186698;19;20007;-72
2022/05/07 06:00:40;;;;;;;30.15;18.20;;;14.10;67.10;;;;;;9186293;19;20011;-71
2022/05/07 06:03:47;;;;;;;35.50;20.20;;;14.10;67.20;;;;;;9186041;19;20090;-71
2022/05/07 06:06:56;;;;;;;35.88;20.50;;;14.30;67.30;;;;;;9183890;19;20015;-72
2022/05/07 06:10:09;;;;;;;32.78;19.67;;;14.30;67.30;;;;;;9185730;19;20025;-71
2022/05/07 06:13:18;;;;;;;31.08;18.85;;;14.40;67.60;;;;;;9185648;19;20022;-72
2022/05/07 06:16:29;;;;;;;34.90;19.83;;;14.50;67.50;;;;;;9185784;19;20276;-72
2022/05/07 06:19:37;;;;;;;30.25;18.75;;;14.60;67.50;;;;;;9185490;19;20010;-71
2022/05/07 06:22:43;;;;;;;30.30;19.52;;;14.70;67.50;;;;;;9185256;19;20011;-71
2022/05/07 06:29:16;;;;;;;27.13;17.90;;;14.90;67.70;;;;;;9185005;19;20011;-71
2022/05/07 06:32:21;;;;;;;28.15;17.88;;;15.00;67.60;;;;;;9185020;19;20468;-72
2022/05/07 06:35:27;;;;;;;29.77;18.73;;;15.10;67.60;;;;;;9186092;19;20021;-70
2022/05/07 06:38:41;;;;;;;32.30;18.95;;;15.20;67.50;;;;;;9182900;19;20046;-72
2022/05/07 06:41:53;;;;;;;32.10;19.88;;;15.30;67.40;;;;;;9181038;19;20044;-70
2022/05/07 06:44:58;;;;;;;32.85;17.80;;;15.40;67.50;;;;;;9186771;19;20017;-69
2022/05/07 06:48:11;;;;;;;33.17;18.48;;;15.50;67.40;;;;;;9181382;19;20022;-71
2022/05/07 06:51:21;;;;;;;28.40;18.40;;;15.60;67.40;;;;;;9184433;19;20360;-69
2022/05/07 06:54:27;;;;;;;32.53;19.02;;;15.70;67.50;;;;;;9184792;19;20018;-69
2022/05/07 06:57:35;;;;;;;27.77;16.80;;;15.80;67.50;;;;;;9182583;19;20052;-68
2022/05/07 07:00:46;;;;;;;29.52;18.15;;;15.90;67.50;;;;;;9183288;19;20014;-68
2022/05/07 07:03:52;;;;;;;25.63;16.60;;;16.00;67.40;;;;;;9183827;19;20010;-70
2022/05/07 07:06:57;;;;;;;51.42;19.90;;;16.20;67.40;;;;;;9181395;19;20390;-68
2022/05/07 07:10:02;;;;;;;32.65;17.73;;;16.20;67.30;;;;;;9183091;19;20017;-68
2022/05/07 07:13:11;;;;;;;28.75;18.15;;;16.40;67.40;;;;;;9183378;19;20011;-71
2022/05/07 07:16:18;;;;;;;27.08;17.25;;;16.50;67.30;;;;;;9184794;19;20013;-68
2022/05/07 07:19:35;;;;;;;29.70;16.70;;;16.60;67.10;;;;;;9182969;19;20015;-68
2022/05/07 07:22:41;;;;;;;36.78;18.25;;;16.80;67.10;;;;;;9184409;19;20471;-69
2022/05/07 07:25:47;;;;;;;31.88;16.63;;;16.90;67.10;;;;;;9183150;19;20015;-69
2022/05/07 07:28:55;;;;;;;25.52;16.95;;;17.00;67.00;;;;;;9181743;19;20359;-69
2022/05/07 07:32:05;;;;;;;28.25;17.23;;;17.20;67.10;;;;;;9183186;19;20021;-68
2022/05/07 07:35:13;;;;;;;34.45;17.60;;;17.30;67.00;;;;;;9182404;19;20006;-68
2022/05/07 07:38:21;;;;;;;26.23;16.63;;;17.50;66.80;;;;;;9182759;19;20040;-68
2022/05/07 07:41:29;;;;;;;29.38;16.15;;;17.60;66.70;;;;;;9179757;19;20365;-69
2022/05/07 07:44:37;;;;;;;36.60;18.75;;;17.70;66.50;;;;;;9182893;19;20015;-68
2022/05/07 07:51:01;;;;;;;32.53;19.02;;;18.00;66.30;;;;;;9180733;19;20014;-68
2022/05/07 07:54:07;;;;;;;27.75;19.17;;;18.20;66.20;;;;;;9181089;19;20081;-68
2022/05/07 07:57:12;;;;;;;31.48;18.83;;;18.30;66.00;;;;;;9180271;19;20018;-69
2022/05/07 08:00:22;;;;;;;32.88;18.27;;;18.50;65.90;;;;;;9180576;19;20044;-68
2022/05/07 08:03:28;;;;;;;32.53;19.33;;;18.70;65.70;;;;;;9180042;19;20018;-68
2022/05/07 08:06:33;;;;;;;31.25;19.08;;;18.80;65.60;;;;;;9179327;19;20014;-67
2022/05/07 08:12:57;;;;;;;49.80;19.65;;;19.10;65.20;;;;;;9179851;19;20010;-68
2022/05/07 08:16:08;;;;;;;27.90;17.52;;;19.40;65.00;;;;;;9181313;19;20015;-68
2022/05/07 08:19:16;;;;;;;21.65;15.02;;;19.60;64.70;;;;;;9177677;19;20106;-66
2022/05/07 08:22:21;;;;;;;39.35;16.05;;;19.70;64.50;;;;;;9179322;19;20006;-66
2022/05/07 08:25:27;;;;;;;24.20;13.70;;;19.90;64.30;;;;;;9178582;19;20014;-66
2022/05/07 08:28:32;;;;;;;25.77;15.18;;;20.10;64.10;;;;;;9179600;19;20030;-67
2022/05/07 08:31:41;;;;;;;29.17;15.40;;;20.20;63.70;;;;;;9182130;19;20594;-67
2022/05/07 08:34:48;;;;;;;24.85;14.75;;;20.40;63.50;;;;;;9180827;19;20018;-68
2022/05/07 08:37:53;;;;;;;23.15;14.98;;;20.50;63.30;;;;;;9177854;19;20022;-69
2022/05/07 08:41:02;;;;;;;22.95;13.93;;;20.60;63.80;;;;;;9179082;19;20493;-68
2022/05/07 08:44:11;;;;;;;24.40;13.15;;;20.80;62.90;;;;;;9175326;19;20014;-69
2022/05/07 08:47:23;;;;;;;28.15;12.18;;;;;;;;;;9179684;19;20007;-68
2022/05/07 08:50:29;;;;;;;21.20;12.48;;;21.20;62.00;;;;;;9180481;19;20021;-69
2022/05/07 08:53:34;;;;;;;20.92;12.75;;;21.30;62.30;;;;;;9180891;19;20030;-69
2022/05/07 08:56:39;;;;;;;21.83;10.95;;;21.50;61.90;;;;;;9180798;19;20341;-68
2022/05/07 08:59:54;;;;;;;21.20;11.60;;;21.60;61.70;;;;;;9178932;19;20013;-68
2022/05/07 09:03:04;;;;;;;24.50;11.38;;;21.80;61.10;;;;;;9186246;19;20022;-70
2022/05/07 09:06:26;;;;;;;26.75;12.43;;;21.90;60.90;;;;;;9188418;19;20011;-69
2022/05/07 09:09:31;;;;;;;18.70;11.35;;;22.10;60.50;;;;;;9185512;19;20028;-69
2022/05/07 09:12:39;;;;;;;24.23;11.60;;;22.20;60.50;;;;;;9188603;19;20048;-68
2022/05/07 09:15:52;;;;;;;18.15;10.95;;;22.30;60.40;;;;;;9188860;19;20010;-69
2022/05/07 09:19:05;;;;;;;18.92;12.00;;;22.40;60.00;;;;;;9186897;19;20861;-69
2022/05/07 09:22:15;;;;;;;23.30;10.70;;;22.60;59.80;;;;;;9185701;19;20499;-69
2022/05/07 09:25:30;;;;;;;20.90;11.15;;;22.80;59.70;;;;;;9188322;19;20015;-69
2022/05/07 09:28:38;;;;;;;21.13;10.30;;;22.90;59.30;;;;;;9185382;19;20021;-69
2022/05/07 09:31:49;;;;;;;26.83;10.73;;;23.00;59.20;;;;;;9186886;19;20011;-68
2022/05/07 09:38:29;;;;;;;27.17;12.02;;;23.50;58.60;;;;;;9186889;19;20026;-69
2022/05/07 09:41:37;;;;;;;16.20;9.90;;;23.50;58.50;;;;;;9182629;19;20015;-69
2022/05/07 09:44:46;;;;;;;30.02;9.25;;;23.60;58.10;;;;;;9187182;19;20010;-69
2022/05/07 09:47:52;;;;;;;16.08;8.70;;;23.70;57.80;;;;;;9185540;19;20014;-68
2022/05/07 09:51:01;;;;;;;23.38;10.68;;;23.80;57.60;;;;;;9184645;19;20044;-68
2022/05/07 09:57:34;;;;;;;27.65;14.20;;;23.90;57.30;;;;;;9187784;19;20029;-68
2022/05/07 10:00:43;;;;;;;27.08;13.77;;;23.90;57.30;;;;;;9185862;19;20020;-69
2022/05/07 10:04:09;;;;;;;22.30;13.45;;;23.90;57.30;;;;;;9185021;19;20023;-68
2022/05/07 10:07:52;;;;;;;23.27;13.07;;;23.90;57.10;;;;;;9186238;19;20007;-68
2022/05/07 10:11:10;;;;;;;27.23;13.68;;;23.90;57.20;;;;;;9183973;19;20018;-68
2022/05/07 10:14:29;;;;;;;21.08;12.35;;;23.60;57.00;;;;;;9182659;19;20024;-69
2022/05/07 10:17:37;;;;;;;23.08;12.70;;;24.00;57.10;;;;;;9185036;19;20041;-69
2022/05/07 10:20:44;;;;;;;25.65;12.80;;;24.10;57.20;;;;;;9185521;19;20022;-70
2022/05/07 10:27:31;;;;;;;;;;;24.20;56.80;;;;;;9185274;19;20019;-68
2022/05/07 10:30:49;;;;;;;22.23;10.15;;;24.30;57.20;;;;;;9184665;19;20359;-68
2022/05/07 10:33:55;;;;;;;23.20;10.75;;;24.30;56.60;;;;;;9185561;19;20006;-69
2022/05/07 10:37:05;;;;;;;20.30;10.85;;;24.40;56.60;;;;;;9186071;19;20082;-69
2022/05/07 10:40:16;;;;;;;22.75;10.63;;;24.40;56.30;;;;;;9186274;19;20018;-69
2022/05/07 10:43:37;;;;;;;23.13;12.07;;;24.50;56.30;;;;;;9180249;19;20019;-69
2022/05/07 10:46:57;;;;;;;18.70;9.88;;;24.60;55.90;;;;;;9182387;19;20037;-69
2022/05/07 10:50:14;;;;;;;23.15;10.55;;;24.70;55.80;;;;;;9182398;19;20022;-69
2022/05/07 10:53:19;;;;;;;18.48;9.05;;;24.80;55.70;;;;;;9185880;19;20074;-68
2022/05/07 10:56:28;;;;;;;16.63;10.15;;;25.00;55.80;;;;;;9184615;19;20019;-66
2022/05/07 10:59:37;;;;;;;27.65;10.80;;;25.10;55.60;;;;;;9185326;19;20056;-66
2022/05/07 11:02:46;;;;;;;26.40;9.35;;;25.30;55.40;;;;;;9185906;19;20569;-68
2022/05/07 11:05:52;;;;;;;23.20;9.55;;;25.40;55.10;;;;;;9182068;19;20498;-67
2022/05/07 11:08:57;;;;;;;22.15;10.50;;;25.50;55.00;;;;;;9181488;19;20363;-68
2022/05/07 11:12:02;;;;;;;17.30;9.43;;;25.60;54.70;;;;;;9182092;19;20011;-68
2022/05/07 11:15:13;;;;;;;20.50;8.70;;;25.70;54.60;;;;;;9184560;19;20372;-72
2022/05/07 11:18:19;;;;;;;18.23;10.13;;;25.80;54.20;;;;;;9181080;19;20027;-71
2022/05/07 11:21:25;;;;;;;19.73;10.77;;;25.90;54.10;;;;;;9181731;19;20022;-70
2022/05/07 11:24:31;;;;;;;18.85;10.38;;;25.90;53.80;;;;;;9183832;19;20015;-70
2022/05/07 11:27:36;;;;;;;20.77;10.18;;;25.90;53.80;;;;;;9182007;19;20011;-70
2022/05/07 11:30:52;;;;;;;22.27;10.68;;;26.00;53.80;;;;;;9181011;19;20023;-70
2022/05/07 11:34:05;;;;;;;20.02;10.07;;;26.00;53.30;;;;;;9183687;19;20391;-70
2022/05/07 11:37:17;;;;;;;24.35;11.60;;;26.00;53.30;;;;;;9181746;19;20018;-69
2022/05/07 11:40:31;;;;;;;21.58;9.95;;;26.10;53.40;;;;;;9181659;19;20017;-68
2022/05/07 11:46:58;;;;;;;15.13;6.88;;;25.90;53.30;;;;;;9182589;19;20009;-70
2022/05/07 11:50:07;;;;;;;17.27;8.45;;;25.80;53.20;;;;;;9180976;19;20010;-73
2022/05/07 11:53:13;;;;;;;27.88;9.07;;;25.70;53.10;;;;;;9181565;19;20939;-68
2022/05/07 11:56:18;;;;;;;21.17;10.88;;;25.60;53.10;;;;;;9181536;19;20010;-67
2022/05/07 11:59:23;;;;;;;33.88;11.00;;;25.50;53.20;;;;;;9181633;19;20025;-67
2022/05/07 12:02:31;;;;;;;18.85;11.25;;;25.40;53.20;;;;;;9183173;19;20028;-67
2022/05/07 12:05:44;;;;;;;23.63;11.50;;;25.30;53.30;;;;;;9180267;19;20470;-67
2022/05/07 12:08:49;;;;;;;26.47;12.03;;;25.20;53.40;;;;;;9182801;19;20029;-67
2022/05/07 12:11:54;;;;;;;20.90;11.30;;;25.10;53.60;;;;;;9182993;19;20022;-67
2022/05/07 12:15:01;;;;;;;24.83;11.35;;;25.00;53.70;;;;;;9182329;19;20018;-68
2022/05/07 12:18:09;;;;;;;19.35;10.80;;;25.00;53.60;;;;;;9181268;19;20018;-68
2022/05/07 12:21:14;;;;;;;21.80;10.95;;;25.00;53.70;;;;;;9181425;19;20014;-67
2022/05/07 12:30:54;;;;;;;19.58;10.75;;;25.10;53.50;;;;;;9181098;19;20454;-68
2022/05/07 12:34:02;;;;;;;18.92;9.73;;;25.20;53.40;;;;;;9180505;19;20030;-69
2022/05/07 12:37:07;;;;;;;17.40;9.30;;;25.20;53.10;;;;;;9177395;19;20035;-70
2022/05/07 12:40:17;;;;;;;16.48;8.45;;;25.30;53.10;;;;;;9174869;19;20034;-70
2022/05/07 12:43:22;;;;;;;18.77;8.95;;;25.40;53.10;;;;;;9172077;19;20026;-70
2022/05/07 12:46:27;;;;;;;26.50;10.93;;;25.50;53.10;;;;;;9176871;19;20017;-70
2022/05/07 12:49:35;;;;;;;24.35;12.48;;;25.50;53.00;;;;;;9175820;19;20505;-69
2022/05/07 12:52:40;;;;;;;29.00;12.45;;;25.60;53.00;;;;;;9179420;19;20021;-68
2022/05/07 12:55:46;;;;;;;25.55;12.85;;;25.70;52.90;;;;;;9177588;19;20041;-68
2022/05/07 12:58:52;;;;;;;31.13;12.80;;;25.60;52.80;;;;;;9176745;19;20021;-68
2022/05/07 13:01:57;;;;;;;33.08;13.35;;;25.60;52.80;;;;;;9179648;19;20018;-69
2022/05/07 13:05:05;;;;;;;28.52;13.63;;;25.60;52.80;;;;;;9175215;19;20021;-68
2022/05/07 13:08:10;;;;;;;27.20;12.80;;;25.50;52.60;;;;;;9177283;19;20022;-69
2022/05/07 13:11:16;;;;;;;25.73;12.25;;;25.40;52.70;;;;;;9174622;19;20022;-68
2022/05/07 13:14:21;;;;;;;26.25;12.00;;;25.40;52.80;;;;;;9178546;19;20019;-69
2022/05/07 13:17:26;;;;;;;24.27;12.13;;;25.30;52.80;;;;;;9178618;19;20019;-68
2022/05/07 13:20:34;;;;;;;19.27;11.45;;;25.20;52.80;;;;;;9178032;19;20106;-69
2022/05/07 13:23:39;;;;;;;20.60;10.43;;;25.20;52.80;;;;;;9177858;19;20014;-68
2022/05/07 13:26:44;;;;;;;24.80;11.60;;;25.10;52.70;;;;;;9176488;19;20014;-70
2022/05/07 13:29:55;;;;;;;23.95;11.85;;;25.10;52.80;;;;;;9174418;19;20025;-69
2022/05/07 13:33:00;;;;;;;23.95;11.50;;;25.00;52.90;;;;;;9177245;19;20019;-69
2022/05/07 13:36:08;;;;;;;20.52;10.93;;;25.00;52.90;;;;;;9175920;19;20029;-69
2022/05/07 13:39:13;;;;;;;20.13;9.80;;;25.00;52.80;;;;;;9175274;19;20042;-69
2022/05/07 13:42:18;;;;;;;22.60;10.20;;;25.00;52.90;;;;;;9171075;19;20011;-69
2022/05/07 13:45:23;;;;;;;15.65;9.65;;;25.10;52.90;;;;;;9175252;19;20023;-72
2022/05/07 13:48:29;;;;;;;20.13;9.10;;;25.00;52.50;;;;;;9183018;19;20021;-69
2022/05/07 13:51:36;;;;;;;20.30;9.82;;;25.00;52.50;;;;;;9182595;19;20010;-68
2022/05/07 13:54:42;;;;;;;19.67;8.80;;;25.00;52.30;;;;;;9187117;19;20021;-68
2022/05/07 13:57:47;;;;;;;21.63;10.57;;;25.00;52.40;;;;;;9184019;19;20023;-68
2022/05/07 14:00:52;;;;;;;18.27;9.90;;;25.00;52.50;;;;;;9182166;19;20352;-67
2022/05/07 14:03:57;;;;;;;15.88;9.45;;;24.90;52.30;;;;;;9182505;19;20389;-70
2022/05/07 14:07:14;;;;;;;18.55;8.70;;;24.80;52.20;;;;;;9182320;19;19998;-69
2022/05/07 14:10:19;;;;;;;14.00;9.43;;;24.80;52.10;;;;;;9179748;19;20034;-70
2022/05/07 14:13:24;;;;;;;16.58;10.40;;;24.80;52.20;;;;;;9179669;19;20043;-70
2022/05/07 14:16:29;;;;;;;18.38;10.88;;;24.70;52.10;;;;;;9180799;19;20031;-68
2022/05/07 14:19:34;;;;;;;19.60;11.10;;;24.60;52.30;;;;;;9182199;19;20026;-68
2022/05/07 14:22:42;;;;;;;25.50;13.45;;;24.60;52.30;;;;;;9185241;19;20407;-68
2022/05/07 14:25:48;;;;;;;22.75;14.07;;;24.50;52.30;;;;;;9179470;19;20018;-68
2022/05/07 14:28:53;;;;;;;20.60;12.13;;;24.50;52.40;;;;;;9183023;19;20029;-68
2022/05/07 14:31:59;;;;;;;21.33;12.05;;;24.40;52.40;;;;;;9176154;19;20375;-68
2022/05/07 14:35:04;;;;;;;20.73;11.77;;;24.30;52.40;;;;;;9183147;19;20401;-69
2022/05/07 14:38:12;;;;;;;15.63;11.68;;;24.20;52.40;;;;;;9186296;19;20533;-68
2022/05/07 14:41:17;;;;;;;17.10;11.55;;;24.00;52.40;;;;;;9183374;19;20475;-69
2022/05/07 14:44:22;;;;;;;17.10;12.20;;;23.90;52.50;;;;;;9186997;19;20014;-70
2022/05/07 14:47:27;;;;;;;20.67;11.73;;;23.80;52.50;;;;;;9186452;19;20048;-69
2022/05/07 14:50:32;;;;;;;22.40;11.98;;;23.70;52.50;;;;;;9183164;19;20007;-69
2022/05/07 14:53:40;;;;;;;17.13;10.75;;;23.60;52.60;;;;;;9183618;19;20026;-69
2022/05/07 14:56:45;;;;;;;17.52;10.82;;;23.50;52.70;;;;;;9183373;19;20661;-69
2022/05/07 14:59:50;;;;;;;21.17;11.80;;;23.40;52.70;;;;;;9184332;19;20471;-69
2022/05/07 15:02:55;;;;;;;18.67;11.73;;;23.40;52.80;;;;;;9183761;19;20349;-69
2022/05/07 15:06:00;;;;;;;20.95;11.80;;;23.20;52.80;;;;;;9184955;19;20025;-69
2022/05/07 15:12:26;;;;;;;19.85;11.68;;;23.10;52.90;;;;;;9181221;19;20019;-69
2022/05/07 15:15:32;;;;;;;17.33;11.48;;;23.00;53.00;;;;;;9186050;19;20326;-69
2022/05/07 15:18:37;;;;;;;24.25;12.20;;;23.00;53.10;;;;;;9184963;19;20007;-69
2022/05/07 15:21:44;;;;;;;24.90;12.25;;;22.90;53.00;;;;;;9182873;19;20348;-69
2022/05/07 15:24:51;;;;;;;19.15;12.45;;;22.80;53.10;;;;;;9185099;19;20029;-69
2022/05/07 15:27:56;;;;;;;22.02;12.25;;;22.70;53.20;;;;;;9183931;19;20017;-69
2022/05/07 15:31:01;;;;;;;27.13;13.32;;;22.70;53.30;;;;;;9181046;19;20021;-69
2022/05/07 15:37:24;;;;;;;28.40;14.48;;;22.60;53.40;;;;;;9184016;19;20073;-69
2022/05/07 15:40:32;;;;;;;27.80;14.60;;;22.50;53.40;;;;;;9183939;19;20006;-69
2022/05/07 15:43:37;;;;;;;28.20;13.77;;;22.40;53.50;;;;;;9180478;19;20543;-69
2022/05/07 15:46:43;;;;;;;28.65;15.52;;;22.40;53.60;;;;;;9182112;19;20022;-70
2022/05/07 15:49:50;;;;;;;36.00;15.23;;;22.30;53.70;;;;;;9182561;19;20082;-69
2022/05/07 15:52:56;;;;;;;31.02;14.95;;;22.30;53.90;;;;;;9184174;19;20026;-69
2022/05/07 15:56:03;;;;;;;25.02;14.20;;;22.30;54.00;;;;;;9183331;19;20038;-69
2022/05/07 15:59:13;;;;;;;31.08;15.20;;;22.20;54.00;;;;;;9182453;19;20018;-69
2022/05/07 16:02:19;;;;;;;23.75;13.15;;;22.20;54.00;;;;;;9184120;19;20411;-69
2022/05/07 16:05:24;;;;;;;27.17;13.23;;;22.20;54.10;;;;;;9181826;19;20102;-69
2022/05/07 16:08:30;;;;;;;34.38;12.30;;;22.10;54.10;;;;;;9183176;19;20427;-69
2022/05/07 16:11:38;;;;;;;29.58;12.13;;;22.10;54.20;;;;;;9177295;19;20010;-69
2022/05/07 16:14:44;;;;;;;18.67;11.05;;;22.00;54.20;;;;;;9181230;19;20015;-69
2022/05/07 16:17:48;;;;;;;23.13;10.60;;;21.90;54.30;;;;;;9182083;19;20022;-69
2022/05/07 16:20:54;;;;;;;24.83;11.48;;;21.80;54.40;;;;;;9181580;19;20014;-70
2022/05/07 16:27:35;;;;;;;21.05;10.73;;;21.50;54.70;;;;;;9179992;19;20013;-70
2022/05/07 16:30:40;;;;;;;19.92;11.25;;;21.50;54.80;;;;;;9181977;19;20023;-70
2022/05/07 16:33:45;;;;;;;20.23;10.05;;;21.40;54.90;;;;;;9182843;19;20011;-70
2022/05/07 16:36:50;;;;;;;19.17;10.50;;;21.40;55.10;;;;;;9181127;19;20025;-70
2022/05/07 16:39:57;;;;;;;17.50;10.18;;;21.30;55.10;;;;;;9181991;19;20024;-70
2022/05/07 16:43:05;;;;;;;18.25;9.98;;;21.20;55.10;;;;;;9177010;19;20022;-70
2022/05/07 16:46:10;;;;;;;19.10;10.43;;;21.10;55.20;;;;;;9181882;19;20006;-70
2022/05/07 16:49:15;;;;;;;18.27;8.88;;;21.10;55.20;;;;;;9180480;19;20007;-70